Time,TemperatureF,DewpointF,PressureIn,WindDirection,WindDirectionDegrees,WindSpeedMPH,WindSpeedGustMPH,Humidity,HourlyPrecipIn,Conditions,Clouds,dailyrainin,SoftwareType,DateUTC
2013-05-03 00:00:00,27.0,-99.9,-100.00,SE,143,8.0,8.0,-999,-99.99,,,-99.99,,2013-05-03 06:00:00,
2013-05-03 00:32:00,27.0,-99.9,-100.00,SE,143,8.0,8.0,-999,-99.99,,,-99.99,,2013-05-03 06:32:00,
2013-05-03 00:42:00,27.0,-99.9,-100.00,SE,143,8.0,8.0,-999,-99.99,,,-99.99,,2013-05-03 06:42:00,
2013-05-03 00:52:00,27.0,-99.9,-100.00,SE,143,8.0,8.0,-999,-99.99,,,-99.99,,2013-05-03 06:52:00,
2013-05-03 01:00:00,25.0,-99.9,-100.00,SSE,156,7.0,8.0,-999,-99.99,,,-99.99,,2013-05-03 07:00:00,
2013-05-03 01:32:00,25.0,-99.9,-100.00,SSE,156,7.0,8.0,-999,-99.99,,,-99.99,,2013-05-03 07:32:00,
2013-05-03 01:42:00,25.0,-99.9,-100.00,SSE,156,7.0,8.0,-999,-99.99,,,-99.99,,2013-05-03 07:42:00,
2013-05-03 01:52:00,25.0,-99.9,-100.00,SSE,156,7.0,8.0,-999,-99.99,,,-99.99,,2013-05-03 07:52:00,
2013-05-03 02:00:00,26.0,-99.9,-100.00,SSE,155,8.0,10.0,-999,-99.99,,,-99.99,,2013-05-03 08:00:00,
2013-05-03 02:32:00,26.0,-99.9,-100.00,SSE,155,8.0,10.0,-999,-99.99,,,-99.99,,2013-05-03 08:32:00,
2013-05-03 02:42:00,26.0,-99.9,-100.00,SSE,155,8.0,10.0,-999,-99.99,,,-99.99,,2013-05-03 08:42:00,
2013-05-03 02:53:00,26.0,-99.9,-100.00,SSE,155,8.0,10.0,-999,-99.99,,,-99.99,,2013-05-03 08:53:00,
2013-05-03 04:00:00,25.0,-99.9,-100.00,SE,136,7.0,12.0,-999,-99.99,,,-99.99,,2013-05-03 10:00:00,
2013-05-03 04:32:00,25.0,-99.9,-100.00,SE,136,7.0,12.0,-999,-99.99,,,-99.99,,2013-05-03 10:32:00,
2013-05-03 04:42:00,25.0,-99.9,-100.00,SE,136,7.0,12.0,-999,-99.99,,,-99.99,,2013-05-03 10:42:00,
2013-05-03 04:52:00,25.0,-99.9,-100.00,SE,136,7.0,12.0,-999,-99.99,,,-99.99,,2013-05-03 10:52:00,
2013-05-03 05:00:00,21.0,-99.9,-100.00,ESE,122,10.0,10.0,-999,-99.99,,,-99.99,,2013-05-03 11:00:00,
2013-05-03 05:32:00,21.0,-99.9,-100.00,ESE,122,10.0,10.0,-999,-99.99,,,-99.99,,2013-05-03 11:32:00,
2013-05-03 05:42:00,21.0,-99.9,-100.00,ESE,122,10.0,10.0,-999,-99.99,,,-99.99,,2013-05-03 11:42:00,
2013-05-03 05:52:00,21.0,-99.9,-100.00,ESE,122,10.0,10.0,-999,-99.99,,,-99.99,,2013-05-03 11:52:00,
2013-05-03 07:00:00,28.0,-99.9,-100.00,SE,141,8.0,9.0,-999,-99.99,,,-99.99,,2013-05-03 13:00:00,
2013-05-03 07:32:00,28.0,-99.9,-100.00,SE,141,8.0,9.0,-999,-99.99,,,-99.99,,2013-05-03 13:32:00,
2013-05-03 07:42:00,28.0,-99.9,-100.00,SE,141,8.0,9.0,-999,-99.99,,,-99.99,,2013-05-03 13:42:00,
2013-05-03 07:53:00,28.0,-99.9,-100.00,SE,141,8.0,9.0,-999,-99.99,,,-99.99,,2013-05-03 13:53:00,
2013-05-03 08:00:00,36.0,-99.9,-100.00,SE,142,10.0,11.0,-999,-99.99,,,-99.99,,2013-05-03 14:00:00,
2013-05-03 08:32:00,36.0,-99.9,-100.00,SE,142,10.0,11.0,-999,-99.99,,,-99.99,,2013-05-03 14:32:00,
2013-05-03 08:42:00,36.0,-99.9,-100.00,SE,142,10.0,11.0,-999,-99.99,,,-99.99,,2013-05-03 14:42:00,
2013-05-03 08:52:00,36.0,-99.9,-100.00,SE,142,10.0,11.0,-999,-99.99,,,-99.99,,2013-05-03 14:52:00,
2013-05-03 09:00:00,41.0,-99.9,-100.00,ESE,122,4.0,8.0,-999,-99.99,,,-99.99,,2013-05-03 15:00:00,
2013-05-03 09:33:00,41.0,-99.9,-100.00,ESE,122,4.0,8.0,-999,-99.99,,,-99.99,,2013-05-03 15:33:00,
2013-05-03 09:43:00,41.0,-99.9,-100.00,ESE,122,4.0,8.0,-999,-99.99,,,-99.99,,2013-05-03 15:43:00,
2013-05-03 09:53:00,41.0,-99.9,-100.00,ESE,122,4.0,8.0,-999,-99.99,,,-99.99,,2013-05-03 15:53:00,
2013-05-03 10:00:00,47.0,-99.9,-100.00,NNW,343,1.0,8.0,-999,-99.99,,,-99.99,,2013-05-03 16:00:00,
2013-05-03 10:33:00,47.0,-99.9,-100.00,NNW,343,1.0,8.0,-999,-99.99,,,-99.99,,2013-05-03 16:33:00,
2013-05-03 10:42:00,47.0,-99.9,-100.00,NNW,343,1.0,8.0,-999,-99.99,,,-99.99,,2013-05-03 16:42:00,
2013-05-03 10:52:00,47.0,-99.9,-100.00,NNW,343,1.0,8.0,-999,-99.99,,,-99.99,,2013-05-03 16:52:00,
2013-05-03 11:00:00,49.0,-99.9,-100.00,WNW,286,13.0,20.0,-999,-99.99,,,-99.99,,2013-05-03 17:00:00,
2013-05-03 11:32:00,49.0,-99.9,-100.00,WNW,286,13.0,20.0,-999,-99.99,,,-99.99,,2013-05-03 17:32:00,
2013-05-03 11:42:00,49.0,-99.9,-100.00,WNW,286,13.0,20.0,-999,-99.99,,,-99.99,,2013-05-03 17:42:00,
2013-05-03 11:52:00,49.0,-99.9,-100.00,WNW,286,13.0,20.0,-999,-99.99,,,-99.99,,2013-05-03 17:52:00,
2013-05-03 12:00:00,52.0,-99.9,-100.00,West,277,15.0,20.0,-999,-99.99,,,-99.99,,2013-05-03 18:00:00,
2013-05-03 12:32:00,52.0,-99.9,-100.00,West,277,15.0,20.0,-999,-99.99,,,-99.99,,2013-05-03 18:32:00,
2013-05-03 12:42:00,52.0,-99.9,-100.00,West,277,15.0,20.0,-999,-99.99,,,-99.99,,2013-05-03 18:42:00,
2013-05-03 12:52:00,52.0,-99.9,-100.00,West,277,15.0,20.0,-999,-99.99,,,-99.99,,2013-05-03 18:52:00,
2013-05-03 13:00:00,52.0,-99.9,-100.00,WNW,296,19.0,19.0,-999,-99.99,,,-99.99,,2013-05-03 19:00:00,
2013-05-03 13:52:00,52.0,-99.9,-100.00,WNW,296,19.0,19.0,-999,-99.99,,,-99.99,,2013-05-03 19:52:00,
2013-05-03 14:00:00,54.0,-99.9,-100.00,NW,312,12.0,20.0,-999,-99.99,,,-99.99,,2013-05-03 20:00:00,
2013-05-03 14:32:00,54.0,-99.9,-100.00,NW,312,12.0,20.0,-999,-99.99,,,-99.99,,2013-05-03 20:32:00,
2013-05-03 14:42:00,54.0,-99.9,-100.00,NW,312,12.0,20.0,-999,-99.99,,,-99.99,,2013-05-03 20:42:00,
2013-05-03 14:53:00,54.0,-99.9,-100.00,NW,312,12.0,20.0,-999,-99.99,,,-99.99,,2013-05-03 20:53:00,
2013-05-03 15:00:00,57.0,-99.9,-100.00,NNE,20,13.0,13.0,-999,-99.99,,,-99.99,,2013-05-03 21:00:00,
2013-05-03 15:33:00,57.0,-99.9,-100.00,NNE,20,13.0,13.0,-999,-99.99,,,-99.99,,2013-05-03 21:33:00,
2013-05-03 15:43:00,57.0,-99.9,-100.00,NNE,20,13.0,13.0,-999,-99.99,,,-99.99,,2013-05-03 21:43:00,
2013-05-03 15:53:00,57.0,-99.9,-100.00,NNE,20,13.0,13.0,-999,-99.99,,,-99.99,,2013-05-03 21:53:00,
2013-05-03 19:00:00,48.0,-99.9,-100.00,East,85,16.0,16.0,-999,-99.99,,,-99.99,,2013-05-04 01:00:00,
2013-05-03 19:32:00,48.0,-99.9,-100.00,East,85,16.0,16.0,-999,-99.99,,,-99.99,,2013-05-04 01:32:00,
2013-05-03 19:42:00,48.0,-99.9,-100.00,East,85,16.0,16.0,-999,-99.99,,,-99.99,,2013-05-04 01:42:00,
2013-05-03 19:52:00,48.0,-99.9,-100.00,East,85,16.0,16.0,-999,-99.99,,,-99.99,,2013-05-04 01:52:00,
2013-05-03 20:00:00,43.0,-99.9,-100.00,East,101,10.0,14.0,-999,-99.99,,,-99.99,,2013-05-04 02:00:00,
2013-05-03 20:32:00,43.0,-99.9,-100.00,East,101,10.0,14.0,-999,-99.99,,,-99.99,,2013-05-04 02:32:00,
2013-05-03 20:42:00,43.0,-99.9,-100.00,East,101,10.0,14.0,-999,-99.99,,,-99.99,,2013-05-04 02:42:00,
2013-05-03 20:52:00,43.0,-99.9,-100.00,East,101,10.0,14.0,-999,-99.99,,,-99.99,,2013-05-04 02:52:00,
2013-05-03 21:00:00,41.0,-99.9,-100.00,East,96,12.0,14.0,-999,-99.99,,,-99.99,,2013-05-04 03:00:00,
2013-05-03 21:33:00,41.0,-99.9,-100.00,East,96,12.0,14.0,-999,-99.99,,,-99.99,,2013-05-04 03:33:00,
2013-05-03 21:43:00,41.0,-99.9,-100.00,East,96,12.0,14.0,-999,-99.99,,,-99.99,,2013-05-04 03:43:00,
2013-05-03 21:53:00,41.0,-99.9,-100.00,East,96,12.0,14.0,-999,-99.99,,,-99.99,,2013-05-04 03:53:00,
2013-05-03 22:00:00,41.0,-99.9,-100.00,SSE,150,6.0,10.0,-999,-99.99,,,-99.99,,2013-05-04 04:00:00,
2013-05-03 22:33:00,41.0,-99.9,-100.00,SSE,150,6.0,10.0,-999,-99.99,,,-99.99,,2013-05-04 04:33:00,
2013-05-03 22:43:00,41.0,-99.9,-100.00,SSE,150,6.0,10.0,-999,-99.99,,,-99.99,,2013-05-04 04:43:00,
2013-05-03 22:53:00,41.0,-99.9,-100.00,SSE,150,6.0,10.0,-999,-99.99,,,-99.99,,2013-05-04 04:53:00,
2013-05-03 23:00:00,43.0,-99.9,-100.00,North,1,0.0,1.0,-999,-99.99,,,-99.99,,2013-05-04 05:00:00,
2013-05-03 23:32:00,43.0,-99.9,-100.00,North,1,0.0,1.0,-999,-99.99,,,-99.99,,2013-05-04 05:32:00,
2013-05-03 23:43:00,43.0,-99.9,-100.00,North,1,0.0,1.0,-999,-99.99,,,-99.99,,2013-05-04 05:43:00,
2013-05-03 23:52:00,43.0,-99.9,-100.00,North,1,0.0,1.0,-999,-99.99,,,-99.99,,2013-05-04 05:52:00,